createdAt,value
2022-09-01T00:00:03.255Z,4.13
2022-09-01T00:02:32.237Z,4.30
2022-09-01T00:05:00.640Z,4.45
2022-09-01T00:07:31.619Z,4.35
2022-09-01T00:10:00.226Z,4.72
2022-09-01T00:12:30.120Z,4.22
2022-09-01T00:14:59.130Z,3.83
2022-09-01T00:17:28.094Z,4.13
2022-09-01T00:19:56.541Z,4.45
2022-09-01T00:22:24.897Z,5.30
2022-09-01T00:24:55.070Z,4.95
2022-09-01T00:27:27.977Z,4.22
2022-09-01T00:29:59.577Z,4.43
2022-09-01T00:32:28.242Z,4.30
2022-09-01T00:34:56.837Z,4.65
2022-09-01T00:37:25.226Z,4.70
2022-09-01T00:39:55.172Z,5.07
2022-09-01T00:42:23.705Z,4.78
2022-09-01T00:44:52.295Z,4.60
2022-09-01T00:47:20.730Z,4.13
2022-09-01T00:49:52.552Z,4.68
2022-09-01T00:52:24.016Z,4.75
2022-09-01T00:54:58.281Z,4.05
2022-09-01T00:57:27.420Z,4.68
2022-09-01T00:59:59.503Z,4.15
2022-09-01T01:02:28.408Z,4.20
2022-09-01T01:05:00.792Z,4.20
2022-09-01T01:07:30.430Z,4.80
2022-09-01T01:10:00.306Z,4.05
2022-09-01T01:12:30.981Z,3.60
2022-09-01T01:14:59.415Z,4.30
2022-09-01T01:17:27.931Z,4.70
2022-09-01T01:20:15.896Z,4.15
2022-09-01T01:23:05.868Z,4.47
2022-09-01T01:25:39.239Z,4.20
2022-09-01T01:28:10.711Z,4.15
2022-09-01T01:30:40.543Z,3.97
2022-09-01T01:33:09.275Z,4.07
2022-09-01T01:35:42.087Z,4.20
2022-09-01T01:38:11.466Z,4.47
2022-09-01T01:40:41.629Z,4.03
2022-09-01T01:43:11.685Z,3.97
2022-09-01T01:45:40.078Z,4.57
2022-09-01T01:48:08.744Z,3.50
2022-09-01T01:50:38.557Z,4.32
2022-09-01T01:53:10.837Z,4.25
2022-09-01T01:55:42.002Z,4.00
2022-09-01T01:58:12.258Z,4.30
2022-09-01T02:00:44.824Z,3.97
2022-09-01T02:03:17.347Z,4.28
2022-09-01T02:05:46.785Z,4.28
2022-09-01T02:08:18.570Z,4.75
2022-09-01T02:10:50.727Z,4.30
2022-09-01T02:13:31.402Z,3.70
2022-09-01T02:16:02.825Z,4.50
2022-09-01T02:18:36.169Z,3.80
2022-09-01T02:21:14.974Z,3.85
2022-09-01T02:23:44.886Z,4.47
2022-09-01T02:26:17.583Z,4.00
2022-09-01T02:28:55.831Z,3.80
2022-09-01T02:31:28.182Z,3.95
2022-09-01T02:33:56.764Z,4.03
2022-09-01T02:36:26.111Z,4.00
2022-09-01T02:38:56.602Z,4.07
2022-09-01T02:41:29.397Z,4.13
2022-09-01T02:44:00.386Z,3.50
2022-09-01T02:46:29.709Z,3.97
2022-09-01T02:49:00.935Z,4.82
2022-09-01T02:51:29.491Z,3.70
2022-09-01T02:53:58.002Z,3.83
2022-09-01T02:56:28.138Z,3.63
2022-09-01T02:58:56.879Z,3.53
2022-09-01T03:01:29.727Z,4.00
2022-09-01T03:04:00.413Z,3.67
2022-09-01T03:06:29.647Z,3.75
2022-09-01T03:09:00.382Z,3.75
2022-09-01T03:11:32.785Z,3.58
2022-09-01T03:14:01.337Z,3.80
2022-09-01T03:16:30.706Z,3.83
2022-09-01T03:18:59.849Z,4.47
2022-09-01T03:21:29.657Z,3.83
2022-09-01T03:23:58.366Z,4.20
2022-09-01T03:26:26.878Z,3.45
2022-09-01T03:28:56.988Z,3.85
2022-09-01T03:31:27.719Z,3.85
2022-09-01T03:34:00.775Z,4.00
2022-09-01T03:36:31.065Z,3.85
2022-09-01T03:38:59.610Z,3.70
2022-09-01T03:41:31.013Z,3.78
2022-09-01T03:44:01.184Z,3.72
2022-09-01T03:46:36.250Z,4.15
2022-09-01T03:49:07.553Z,4.40
2022-09-01T03:51:39.387Z,4.13
2022-09-01T03:54:08.238Z,4.22
2022-09-01T03:56:41.452Z,4.07
2022-09-01T03:59:17.257Z,4.28
2022-09-01T04:01:47.098Z,4.57
2022-09-01T04:04:18.055Z,4.53
2022-09-01T04:06:49.159Z,4.30
2022-09-01T04:09:17.672Z,4.25
2022-09-01T04:11:47.193Z,4.75
2022-09-01T04:14:17.696Z,4.22
2022-09-01T04:17:04.367Z,4.20
2022-09-01T04:19:37.457Z,4.50
2022-09-01T04:22:07.923Z,4.47
2022-09-01T04:24:36.411Z,4.90
2022-09-01T04:27:07.688Z,4.15
2022-09-01T04:29:37.502Z,4.10
2022-09-01T04:32:13.459Z,5.22
2022-09-01T04:34:42.276Z,4.35
2022-09-01T04:37:13.262Z,4.32
2022-09-01T04:39:53.724Z,4.72
2022-09-01T04:42:30.681Z,3.88
2022-09-01T04:45:10.455Z,4.70
2022-09-01T04:47:42.219Z,4.25
2022-09-01T04:50:14.842Z,4.15
2022-09-01T04:52:44.232Z,4.30
2022-09-01T04:55:17.666Z,3.70
2022-09-01T04:57:49.818Z,4.45
2022-09-01T05:00:24.568Z,4.05
2022-09-01T05:03:03.537Z,3.88
2022-09-01T05:05:39.621Z,4.60
2022-09-01T05:08:10.336Z,4.60
2022-09-01T05:10:42.752Z,4.43
2022-09-01T05:13:18.104Z,3.95
2022-09-01T05:15:49.060Z,4.20
2022-09-01T05:18:23.546Z,4.40
2022-09-01T05:20:53.164Z,4.20
2022-09-01T05:23:23.654Z,4.40
2022-09-01T05:25:57.388Z,3.47
2022-09-01T05:28:27.253Z,3.92
2022-09-01T05:30:57.197Z,4.32
2022-09-01T05:33:25.753Z,3.90
2022-09-01T05:35:57.236Z,3.72
2022-09-01T05:38:25.850Z,3.67
2022-09-01T05:40:59.164Z,3.67
2022-09-01T05:43:30.996Z,4.28
2022-09-01T05:46:07.119Z,3.47
2022-09-01T05:48:40.403Z,3.45
2022-09-01T05:51:22.602Z,4.22
2022-09-01T05:53:59.333Z,3.53
2022-09-01T05:56:29.507Z,3.95
2022-09-01T06:02:07.100Z,3.60
2022-09-01T06:04:35.727Z,3.58
2022-09-01T06:07:10.374Z,3.15
2022-09-01T06:09:42.455Z,4.22
2022-09-01T06:12:18.428Z,3.72
2022-09-01T06:14:48.599Z,3.40
2022-09-01T06:17:25.109Z,3.70
2022-09-01T06:19:55.818Z,3.97
2022-09-01T06:22:25.415Z,3.85
2022-09-01T06:24:59.572Z,4.10
2022-09-01T06:27:30.819Z,3.90
2022-09-01T06:29:59.765Z,3.45
2022-09-01T06:32:30.038Z,3.90
2022-09-01T06:35:00.542Z,3.63
2022-09-01T06:37:30.542Z,4.03
2022-09-01T06:40:02.465Z,3.22
2022-09-01T06:42:31.573Z,3.40
2022-09-01T06:45:00.127Z,3.17
2022-09-01T06:47:30.089Z,3.38
2022-09-01T06:49:59.130Z,3.50
2022-09-01T06:52:28.222Z,3.17
2022-09-01T06:54:57.929Z,3.58
2022-09-01T07:00:19.143Z,3.65
2022-09-01T07:02:53.706Z,3.00
2022-09-01T07:08:18.053Z,3.28
2022-09-01T07:13:39.676Z,3.13
2022-09-01T07:19:19.419Z,3.30
2022-09-01T07:24:36.221Z,3.28
2022-09-01T07:27:08.054Z,3.40
2022-09-01T07:29:36.648Z,2.97
2022-09-01T07:34:55.702Z,3.38
2022-09-01T07:43:09.599Z,3.25
2022-09-01T07:45:47.146Z,3.33
2022-09-01T07:51:36.410Z,2.60
2022-09-01T07:54:06.212Z,2.63
2022-09-01T07:56:39.746Z,2.80
2022-09-01T07:59:12.683Z,2.80
2022-09-01T08:01:44.496Z,3.20
2022-09-01T08:04:15.500Z,3.38
2022-09-01T08:06:45.273Z,3.08
2022-09-01T08:09:25.202Z,3.17
2022-09-01T08:12:02.892Z,3.10
2022-09-01T08:14:34.293Z,3.08
2022-09-01T08:17:16.890Z,3.00
2022-09-01T08:19:47.123Z,2.72
2022-09-01T08:22:17.651Z,2.65
2022-09-01T08:24:46.054Z,2.78
2022-09-01T08:27:14.487Z,2.58
2022-09-01T08:29:43.382Z,2.60
2022-09-01T08:32:12.214Z,2.83
2022-09-01T08:34:40.737Z,2.70
2022-09-01T08:37:09.091Z,2.80
2022-09-01T08:39:38.906Z,3.05
2022-09-01T08:42:15.287Z,2.78
2022-09-01T08:44:52.801Z,2.40
2022-09-01T08:47:35.538Z,2.47
2022-09-01T08:50:12.095Z,2.60
2022-09-01T08:52:43.845Z,2.28
2022-09-01T08:55:22.037Z,2.67
2022-09-01T08:57:54.800Z,2.80
2022-09-01T09:00:29.248Z,3.33
2022-09-01T09:03:08.588Z,2.47
2022-09-01T09:05:56.927Z,2.30
2022-09-01T09:08:40.326Z,2.53
2022-09-01T09:11:21.752Z,2.83
2022-09-01T09:14:06.419Z,2.85
2022-09-01T09:16:39.988Z,2.50
2022-09-01T09:19:12.623Z,2.55
2022-09-01T09:21:43.396Z,2.40
2022-09-01T09:24:21.751Z,2.20
2022-09-01T09:26:53.856Z,2.42
2022-09-01T09:29:23.333Z,2.42
2022-09-01T09:32:04.140Z,2.85
2022-09-01T09:34:35.618Z,1.88
2022-09-01T09:37:23.060Z,2.00
2022-09-01T09:40:10.220Z,1.92
2022-09-01T09:42:42.507Z,2.40
2022-09-01T09:45:25.081Z,2.03
2022-09-01T09:47:55.060Z,2.25
2022-09-01T09:50:27.412Z,2.33
2022-09-01T09:53:12.887Z,2.05
2022-09-01T09:55:56.312Z,2.05
2022-09-01T09:58:31.931Z,2.20
2022-09-01T10:01:03.970Z,2.28
2022-09-01T10:03:40.806Z,2.65
2022-09-01T10:06:13.549Z,2.38
2022-09-01T10:08:45.928Z,2.22
2022-09-01T10:11:33.459Z,2.53
2022-09-01T10:14:08.833Z,2.42
2022-09-01T10:16:43.278Z,2.30
2022-09-01T10:19:16.635Z,2.55
2022-09-01T10:21:46.368Z,2.03
2022-09-01T10:24:25.877Z,2.40
2022-09-01T10:26:58.371Z,2.03
2022-09-01T10:29:35.237Z,2.72
2022-09-01T10:32:30.989Z,2.50
2022-09-01T10:35:01.701Z,2.20
2022-09-01T10:37:31.088Z,2.45
2022-09-01T10:40:32.759Z,2.33
2022-09-01T10:43:22.194Z,2.47
2022-09-01T10:45:57.934Z,2.60
2022-09-01T10:48:46.363Z,2.70
2022-09-01T10:51:56.485Z,2.67
2022-09-01T10:55:00.626Z,2.72
2022-09-01T10:57:56.640Z,2.63
2022-09-01T11:01:11.269Z,2.88
2022-09-01T11:04:02.234Z,2.72
2022-09-01T11:07:13.864Z,2.65
2022-09-01T11:09:48.529Z,3.03
2022-09-01T11:12:53.835Z,2.90
2022-09-01T11:15:49.675Z,2.53
2022-09-01T11:18:34.044Z,2.88
2022-09-01T11:21:18.142Z,2.50
2022-09-01T11:23:56.711Z,2.45
2022-09-01T11:26:47.671Z,2.83
2022-09-01T11:30:04.553Z,3.05
2022-09-01T11:32:36.143Z,2.60
2022-09-01T11:35:14.532Z,2.92
2022-09-01T11:37:43.065Z,2.60
2022-09-01T11:40:14.016Z,2.70
2022-09-01T11:42:46.817Z,2.67
2022-09-01T11:45:21.740Z,2.85
2022-09-01T11:47:52.890Z,2.88
2022-09-01T11:50:26.670Z,2.72
2022-09-01T11:53:00.133Z,3.00
2022-09-01T11:55:32.970Z,3.10
2022-09-01T11:58:01.801Z,2.65
2022-09-01T12:00:38.571Z,2.33
2022-09-01T12:03:20.471Z,2.58
2022-09-01T12:06:01.658Z,2.70
2022-09-01T12:08:34.175Z,2.67
2022-09-01T12:11:06.084Z,2.72
2022-09-01T12:13:35.163Z,2.22
2022-09-01T12:16:21.207Z,2.20
2022-09-01T12:18:53.898Z,2.35
2022-09-01T12:21:27.140Z,2.67
2022-09-01T12:23:56.610Z,2.60
2022-09-01T12:26:27.848Z,2.67
2022-09-01T12:28:56.780Z,2.00
2022-09-01T12:31:27.634Z,2.28
2022-09-01T12:33:57.330Z,2.42
2022-09-01T12:36:32.188Z,2.42
2022-09-01T12:39:22.592Z,2.10
2022-09-01T12:42:04.748Z,2.30
2022-09-01T12:44:36.402Z,2.45
2022-09-01T12:47:07.459Z,2.20
2022-09-01T12:49:45.231Z,2.25
2022-09-01T12:52:26.276Z,2.30
2022-09-01T12:55:09.254Z,2.30
2022-09-01T12:57:40.108Z,2.72
2022-09-01T13:00:18.194Z,2.60
2022-09-01T13:02:48.412Z,2.42
2022-09-01T13:05:30.690Z,2.92
2022-09-01T13:08:05.117Z,2.45
2022-09-01T13:10:38.178Z,2.80
2022-09-01T13:13:08.007Z,2.47
2022-09-01T13:15:38.327Z,2.35
2022-09-01T13:18:06.828Z,2.83
2022-09-01T13:20:35.390Z,2.63
2022-09-01T13:23:06.399Z,2.70
2022-09-01T13:25:34.969Z,2.67
2022-09-01T13:28:03.886Z,2.53
2022-09-01T13:30:32.348Z,2.83
2022-09-01T13:35:50.351Z,2.80
2022-09-01T13:38:21.345Z,2.60
2022-09-01T13:40:50.997Z,2.67
2022-09-01T13:43:22.295Z,2.28
2022-09-01T13:45:51.599Z,2.47
2022-09-01T13:48:21.139Z,2.80
2022-09-01T13:53:42.557Z,2.50
2022-09-01T13:56:10.971Z,2.95
2022-09-01T13:58:39.330Z,2.90
2022-09-01T14:01:08.057Z,2.78
2022-09-01T14:03:37.205Z,2.58
2022-09-01T14:06:07.064Z,2.67
2022-09-01T14:08:35.429Z,2.83
2022-09-01T14:11:05.348Z,2.33
2022-09-01T14:13:34.520Z,2.75
2022-09-01T14:16:03.113Z,2.30
2022-09-01T14:18:36.840Z,2.47
2022-09-01T14:21:05.550Z,2.70
2022-09-01T14:23:34.000Z,2.40
2022-09-01T14:26:02.501Z,2.53
2022-09-01T14:28:32.404Z,2.40
2022-09-01T14:31:05.864Z,2.45
2022-09-01T14:33:34.435Z,2.90
2022-09-01T14:36:03.336Z,2.58
2022-09-01T14:38:31.901Z,2.53
2022-09-01T14:41:00.365Z,2.47
2022-09-01T14:43:28.972Z,2.35
2022-09-01T14:46:07.544Z,2.50
2022-09-01T14:48:36.121Z,2.65
2022-09-01T14:51:05.591Z,2.30
2022-09-01T14:53:34.402Z,2.25
2022-09-01T14:56:04.437Z,2.20
2022-09-01T14:58:33.556Z,2.67
2022-09-01T15:01:17.326Z,2.50
2022-09-01T15:03:51.921Z,2.45
2022-09-01T15:06:22.455Z,3.53
2022-09-01T15:08:51.212Z,2.63
2022-09-01T15:11:21.916Z,1.92
2022-09-01T15:13:52.631Z,2.58
2022-09-01T15:16:23.179Z,8.65
2022-09-01T15:18:55.385Z,2.65
2022-09-01T15:21:25.854Z,2.30
2022-09-01T15:23:55.244Z,2.80
2022-09-01T15:26:24.190Z,1.73
2022-09-01T15:28:52.701Z,8.27
2022-09-01T15:31:31.086Z,6.80
2022-09-01T15:34:05.053Z,4.07
2022-09-01T15:36:36.786Z,2.50
2022-09-01T15:39:05.359Z,2.17
2022-09-01T15:41:34.698Z,3.63
2022-09-01T15:44:05.554Z,3.50
2022-09-01T15:46:34.325Z,3.00
2022-09-01T15:49:06.668Z,2.50
2022-09-01T15:51:36.810Z,2.05
2022-09-01T15:54:08.299Z,2.17
2022-09-01T15:56:36.928Z,1.85
2022-09-01T15:59:07.519Z,2.30
2022-09-01T16:01:39.028Z,1.92
2022-09-01T16:04:15.823Z,2.20
2022-09-01T16:06:46.830Z,2.30
2022-09-01T16:09:15.402Z,2.17
2022-09-01T16:11:44.354Z,2.00
2022-09-01T16:14:12.888Z,2.35
2022-09-01T16:16:51.998Z,2.50
2022-09-01T16:19:33.731Z,2.00
2022-09-01T16:22:12.031Z,2.33
2022-09-01T16:24:43.662Z,1.95
2022-09-01T16:27:17.212Z,2.33
2022-09-01T16:29:49.810Z,2.70
2022-09-01T16:32:21.326Z,2.33
2022-09-01T16:34:51.815Z,2.28
2022-09-01T16:37:36.170Z,2.53
2022-09-01T16:40:15.783Z,2.05
2022-09-01T16:42:57.952Z,2.08
2022-09-01T16:45:43.082Z,2.33
2022-09-01T16:48:19.736Z,2.33
2022-09-01T16:50:58.046Z,2.45
2022-09-01T16:53:55.463Z,2.35
2022-09-01T16:56:33.589Z,2.25
2022-09-01T16:59:17.703Z,2.10
2022-09-01T17:01:53.037Z,2.15
2022-09-01T17:04:33.237Z,2.17
2022-09-01T17:07:14.356Z,2.60
2022-09-01T17:09:44.943Z,2.42
2022-09-01T17:12:23.365Z,2.80
2022-09-01T17:14:59.618Z,2.65
2022-09-01T17:17:39.113Z,2.08
2022-09-01T17:20:08.751Z,2.60
2022-09-01T17:22:39.084Z,2.50
2022-09-01T17:25:12.030Z,2.85
2022-09-01T17:27:53.184Z,2.63
2022-09-01T17:30:22.254Z,2.65
2022-09-01T17:33:18.511Z,3.05
2022-09-01T17:35:59.673Z,2.95
2022-09-01T17:38:42.687Z,2.45
2022-09-01T17:41:23.284Z,2.63
2022-09-01T17:44:00.227Z,2.85
2022-09-01T17:46:38.161Z,2.95
2022-09-01T17:49:15.148Z,3.00
2022-09-01T17:51:49.321Z,2.60
2022-09-01T17:54:28.155Z,3.28
2022-09-01T17:57:05.143Z,2.65
2022-09-01T17:59:43.305Z,3.20
2022-09-01T18:02:31.243Z,2.88
2022-09-01T18:05:09.743Z,3.13
2022-09-01T18:08:02.776Z,3.05
2022-09-01T18:10:39.701Z,2.83
2022-09-01T18:13:12.387Z,3.08
2022-09-01T18:15:52.560Z,2.92
2022-09-01T18:18:35.034Z,2.47
2022-09-01T18:21:06.381Z,2.88
2022-09-01T18:23:39.749Z,2.95
2022-09-01T18:26:17.577Z,3.13
2022-09-01T18:28:46.361Z,3.30
2022-09-01T18:31:44.895Z,3.17
2022-09-01T18:34:19.790Z,2.75
2022-09-01T18:36:55.386Z,3.03
2022-09-01T18:39:31.227Z,3.35
2022-09-01T18:42:12.154Z,3.08
2022-09-01T18:44:49.382Z,3.85
2022-09-01T18:47:22.045Z,3.85
2022-09-01T18:50:00.465Z,3.05
2022-09-01T18:52:51.543Z,3.17
2022-09-01T18:55:24.792Z,2.97
2022-09-01T18:57:59.108Z,3.08
2022-09-01T19:00:37.996Z,3.28
2022-09-01T19:03:15.929Z,3.53
2022-09-01T19:06:01.778Z,3.08
2022-09-01T19:08:54.387Z,3.05
2022-09-01T19:11:36.051Z,3.05
2022-09-01T19:14:14.745Z,3.00
2022-09-01T19:16:56.251Z,3.25
2022-09-01T19:19:35.539Z,2.97
2022-09-01T19:22:04.181Z,2.90
2022-09-01T19:24:37.940Z,3.35
2022-09-01T19:27:11.522Z,3.33
2022-09-01T19:29:46.870Z,3.08
2022-09-01T19:32:19.470Z,3.00
2022-09-01T19:34:52.612Z,2.80
2022-09-01T19:37:21.510Z,3.15
2022-09-01T19:39:54.120Z,2.95
2022-09-01T19:42:27.374Z,2.80
2022-09-01T19:45:06.551Z,2.92
2022-09-01T19:47:40.696Z,3.40
2022-09-01T19:50:15.075Z,2.92
2022-09-01T19:52:47.495Z,2.50
2022-09-01T19:55:21.773Z,3.42
2022-09-01T19:57:55.705Z,2.90
2022-09-01T20:00:31.928Z,3.00
2022-09-01T20:03:08.722Z,2.85
2022-09-01T20:05:44.684Z,2.90
2022-09-01T20:08:18.118Z,3.17
2022-09-01T20:10:56.327Z,2.80
2022-09-01T20:13:58.562Z,2.97
2022-09-01T20:16:33.903Z,2.95
2022-09-01T20:19:08.659Z,3.13
2022-09-01T20:21:40.131Z,2.97
2022-09-01T20:24:15.597Z,3.08
2022-09-01T20:26:56.302Z,3.13
2022-09-01T20:29:29.854Z,2.95
2022-09-01T20:32:04.153Z,3.00
2022-09-01T20:34:42.142Z,3.40
2022-09-01T20:37:15.000Z,3.45
2022-09-01T20:40:01.418Z,2.88
2022-09-01T20:42:41.253Z,2.83
2022-09-01T20:45:15.066Z,2.63
2022-09-01T20:47:50.455Z,2.50
2022-09-01T20:50:20.478Z,3.25
2022-09-01T20:53:10.695Z,3.28
2022-09-01T20:55:47.081Z,2.92
2022-09-01T20:58:24.638Z,2.92
2022-09-01T21:01:04.308Z,2.90
2022-09-01T21:03:45.473Z,3.05
2022-09-01T21:06:28.340Z,2.95
2022-09-01T21:09:03.234Z,2.97
2022-09-01T21:11:43.296Z,3.20
2022-09-01T21:14:23.734Z,3.60
2022-09-01T21:17:10.161Z,2.97
2022-09-01T21:19:50.163Z,2.90
2022-09-01T21:22:22.132Z,2.80
2022-09-01T21:24:51.339Z,2.55
2022-09-01T21:27:22.719Z,2.63
2022-09-01T21:30:03.921Z,3.33
2022-09-01T21:32:33.774Z,2.55
2022-09-01T21:35:05.270Z,3.13
2022-09-01T21:37:33.755Z,2.42
2022-09-01T21:40:02.130Z,2.60
2022-09-01T21:42:34.184Z,2.33
2022-09-01T21:45:05.991Z,2.88
2022-09-01T21:47:34.961Z,2.60
2022-09-01T21:50:05.759Z,2.53
2022-09-01T21:52:34.173Z,2.90
2022-09-01T21:55:02.633Z,2.78
2022-09-01T21:57:31.639Z,2.72
2022-09-01T22:00:00.026Z,2.65
2022-09-01T22:02:28.824Z,3.13
2022-09-01T22:04:57.406Z,2.60
2022-09-01T22:07:27.165Z,2.58
2022-09-01T22:09:57.826Z,2.80
2022-09-01T22:12:26.176Z,2.60
2022-09-01T22:14:54.521Z,2.53
2022-09-01T22:17:22.863Z,2.85
2022-09-01T22:19:53.112Z,2.65
2022-09-01T22:22:21.505Z,2.80
2022-09-01T22:24:51.351Z,2.75
2022-09-01T22:27:19.719Z,2.10
2022-09-01T22:29:48.124Z,2.90
2022-09-01T22:32:16.578Z,2.47
2022-09-01T22:34:45.095Z,2.50
2022-09-01T22:39:41.769Z,2.97
2022-09-01T22:42:11.531Z,2.25
2022-09-01T22:44:39.867Z,2.40
2022-09-01T22:47:08.489Z,3.03
2022-09-01T22:49:37.007Z,2.42
2022-09-01T22:52:05.474Z,2.25
2022-09-01T22:54:33.821Z,2.40
2022-09-01T22:57:03.263Z,2.15
2022-09-01T22:59:33.291Z,2.47
2022-09-01T23:02:01.968Z,2.03
2022-09-01T23:04:32.190Z,2.38
2022-09-01T23:07:00.546Z,2.25
2022-09-01T23:09:28.919Z,2.40
2022-09-01T23:11:57.487Z,2.47
2022-09-01T23:14:27.140Z,2.17
2022-09-01T23:16:57.165Z,2.42
2022-09-01T23:19:25.690Z,2.28
2022-09-01T23:21:54.595Z,1.98
2022-09-01T23:24:23.009Z,2.13
2022-09-01T23:26:51.390Z,2.30
2022-09-01T23:29:20.394Z,2.15
2022-09-01T23:31:49.068Z,1.60
2022-09-01T23:34:20.009Z,2.25
2022-09-01T23:36:48.554Z,1.65
2022-09-01T23:39:17.101Z,2.03
2022-09-01T23:41:45.671Z,1.67
2022-09-01T23:44:14.412Z,1.80
2022-09-01T23:46:48.686Z,1.60
2022-09-01T23:49:20.013Z,1.65
2022-09-01T23:51:49.241Z,1.40
2022-09-01T23:54:20.750Z,1.40
2022-09-01T23:56:49.434Z,1.40
2022-09-01T23:59:17.963Z,1.60
